Time;durP1;ratioP1;P1;durP2;ratioP2;P2;SDS_P1;SDS_P2;PMS_P1;PMS_P2;Temp;Humidity;BMP_temperature;BMP_pressure;BME280_temperature;BME280_humidity;BME280_pressure;Samples;Min_cycle;Max_cycle;Signal;HPM_P1;HPM_P2
2022/07/09 00:01:15;;;;;;;6.50;3.70;;;;;;;20.68;60.07;99120.41;5000873;28;20395;-93
2022/07/09 00:03:41;;;;;;;4.25;3.00;;;;;;;20.85;59.49;99143.19;4996068;28;20495;-93
2022/07/09 00:06:07;;;;;;;6.63;3.10;;;;;;;20.73;59.68;99138.53;4964517;28;20064;-93
2022/07/09 00:08:33;;;;;;;6.30;3.22;;;;;;;20.67;58.76;99140.72;4997015;28;20022;-93
2022/07/09 00:10:59;;;;;;;6.65;3.03;;;;;;;20.73;58.31;99133.03;4980492;28;20117;-92
2022/07/09 00:13:25;;;;;;;5.25;2.63;;;;;;;20.78;57.65;99139.09;4997006;28;20080;-92
2022/07/09 00:15:52;;;;;;;9.57;3.10;;;;;;;20.71;59.41;99135.31;4981700;28;20022;-93
2022/07/09 00:18:18;;;;;;;4.35;3.25;;;;;;;20.62;59.88;99132.72;4981280;28;20033;-93
2022/07/09 00:20:44;;;;;;;4.30;3.03;;;;;;;20.56;59.94;99128.56;4965933;28;20384;-93
2022/07/09 00:23:09;;;;;;;6.40;3.20;;;;;;;20.60;59.89;99126.78;4965524;28;20029;-93
2022/07/09 00:25:36;;;;;;;8.48;3.17;;;;;;;20.46;60.07;99126.28;4965428;28;20058;-92
2022/07/09 00:28:02;;;;;;;4.75;2.90;;;;;;;20.56;56.75;99132.09;4964635;28;20079;-92
2022/07/09 00:30:29;;;;;;;3.03;2.50;;;;;;;20.61;56.22;99113.91;4980298;28;20024;-93
2022/07/09 00:32:55;;;;;;;5.53;2.63;;;;;;;20.60;56.88;99126.78;4996833;28;20058;-92
2022/07/09 00:35:20;;;;;;;4.15;2.53;;;;;;;20.68;56.15;99120.41;4996947;28;20427;-92
2022/07/09 00:37:47;;;;;;;4.70;2.70;;;;;;;20.71;56.47;99122.47;4980584;28;20024;-92
2022/07/09 00:40:15;;;;;;;4.07;2.30;;;;;;;20.72;55.78;99120.53;4997048;28;20030;-93
2022/07/09 00:42:42;;;;;;;4.32;2.67;;;;;;;20.81;56.26;99118.44;4964016;28;20117;-92
2022/07/09 00:45:08;;;;;;;5.60;2.50;;;;;;;20.76;55.75;99119.47;4980287;28;20025;-91
2022/07/09 00:47:33;;;;;;;3.28;2.10;;;;;;;20.79;56.48;99128.94;4965075;28;20037;-92
2022/07/09 00:49:59;;;;;;;4.82;2.20;;;;;;;20.47;57.03;99100.53;4980851;28;20034;-92
2022/07/09 00:52:24;;;;;;;4.68;2.20;;;;;;;20.64;56.75;99119.47;4964427;28;20076;-92
2022/07/09 00:54:51;;;;;;;4.78;2.22;;;;;;;20.61;57.37;99124.84;4964790;28;20021;-92
2022/07/09 00:57:19;;;;;;;4.75;2.28;;;;;;;20.50;58.14;99099.84;4980617;28;20121;-91
2022/07/09 00:59:46;;;;;;;5.50;2.50;;;;;;;20.65;57.58;99110.16;4997811;28;20535;-92
2022/07/09 01:02:11;;;;;;;3.53;2.20;;;;;;;20.59;57.70;99111.53;4981220;28;20103;-91
2022/07/09 01:04:39;;;;;;;9.23;2.75;;;;;;;20.53;58.02;99101.91;4993005;28;20049;-91
2022/07/09 01:07:04;;;;;;;4.97;2.50;;;;;;;20.56;58.30;99112.94;5017855;28;20036;-92
2022/07/09 01:09:30;;;;;;;3.70;2.40;;;;;;;20.34;58.86;99100.53;5003278;28;20554;-91
2022/07/09 01:11:56;;;;;;;10.10;3.00;;;;;;;20.45;59.05;99119.22;5004578;28;20052;-91
2022/07/09 01:14:24;;;;;;;3.20;2.38;;;;;;;20.51;59.11;99109.66;5003370;28;20021;-92
2022/07/09 01:16:57;;;;;;;11.07;2.45;;;;;;;20.40;59.65;99103.84;5003126;28;20025;-91
2022/07/09 01:19:24;;;;;;;5.22;2.45;;;;;;;20.29;59.96;99108.16;5003742;28;20017;-91
2022/07/09 01:21:49;;;;;;;4.03;2.45;;;;;;;20.12;60.81;99103.69;5019371;28;20410;-91
2022/07/09 01:24:16;;;;;;;4.60;2.42;;;;;;;20.33;60.20;99123.53;5003517;28;20060;-90
2022/07/09 01:26:42;;;;;;;3.17;2.17;;;;;;;20.35;60.31;99113.06;5036202;28;20033;-92
2022/07/09 01:29:09;;;;;;;4.95;2.20;;;;;;;20.32;60.58;99115.69;5002897;28;20021;-94
2022/07/09 01:31:35;;;;;;;4.72;2.58;;;;;;;20.29;60.72;99125.34;5003247;28;20034;-93
2022/07/09 01:34:01;;;;;;;5.13;2.55;;;;;;;20.25;60.97;99115.44;5002445;28;20021;-93
2022/07/09 01:36:27;;;;;;;7.55;2.60;;;;;;;20.31;60.60;99116.81;5019851;28;20025;-91
2022/07/09 01:38:54;;;;;;;2.80;2.50;;;;;;;20.34;60.50;99116.16;5002849;28;20160;-91
2022/07/09 01:41:20;;;;;;;3.95;2.40;;;;;;;20.26;60.41;99109.63;5036391;28;20048;-92
2022/07/09 01:43:46;;;;;;;3.22;2.22;;;;;;;20.27;60.40;99104.97;5002336;28;20052;-92
2022/07/09 01:46:11;;;;;;;3.50;2.30;;;;;;;20.13;60.94;99095.16;5003062;28;20108;-93
2022/07/09 01:48:38;;;;;;;3.22;2.58;;;;;;;20.24;60.76;99122.06;5003927;28;20040;-93
2022/07/09 01:51:04;;;;;;;3.63;2.70;;;;;;;20.26;60.76;99126.03;4987976;28;20032;-92
2022/07/09 01:53:31;;;;;;;4.40;2.40;;;;;;;20.23;60.45;99117.72;5003087;28;20071;-93
2022/07/09 01:55:56;;;;;;;2.75;2.22;;;;;;;20.16;60.49;99112.81;5003731;28;20446;-93
2022/07/09 01:58:22;;;;;;;4.68;2.38;;;;;;;20.27;60.66;99132.28;5003083;28;20033;-94
2022/07/09 02:00:49;;;;;;;3.03;2.40;;;;;;;20.18;60.99;99137.88;5018903;28;20039;-93
2022/07/09 02:03:18;;;;;;;6.63;2.40;;;;;;;20.01;61.39;99116.19;5035276;28;20027;-93
2022/07/09 02:05:44;;;;;;;5.00;2.53;;;;;;;20.13;61.31;99127.13;4985814;28;20037;-92
2022/07/09 02:08:12;;;;;;;8.43;2.70;;;;;;;20.21;61.18;99136.38;5001892;28;20037;-92
2022/07/09 02:10:40;;;;;;;4.80;2.45;;;;;;;20.15;61.37;99135.78;4986223;28;20083;-93
2022/07/09 02:13:06;;;;;;;4.95;2.88;;;;;;;20.16;61.94;99132.72;5001850;28;20041;-93
2022/07/09 02:15:32;;;;;;;3.85;2.50;;;;;;;20.12;61.03;99115.41;5017317;28;20041;-92
2022/07/09 02:17:59;;;;;;;3.85;2.40;;;;;;;20.24;61.51;99133.78;5000376;28;20044;-92
2022/07/09 02:20:25;;;;;;;4.43;2.58;;;;;;;20.20;61.61;99138.31;5000827;28;20036;-93
2022/07/09 02:22:52;;;;;;;7.63;2.70;;;;;;;20.13;62.23;99140.81;5017010;28;20513;-93
2022/07/09 02:25:18;;;;;;;5.80;2.85;;;;;;;20.06;61.69;99127.69;5034851;28;20533;-92
2022/07/09 02:27:44;;;;;;;3.97;2.70;;;;;;;19.99;61.99;99119.25;4985901;28;20030;-91
2022/07/09 02:30:10;;;;;;;6.20;2.42;;;;;;;20.03;62.84;99133.84;5034127;28;20026;-92
2022/07/09 02:32:38;;;;;;;6.47;2.60;;;;;;;19.99;62.63;99139.19;5002091;28;20052;-91
2022/07/09 02:35:04;;;;;;;3.30;2.63;;;;;;;20.13;62.07;99149.81;4986237;28;20037;-93
2022/07/09 02:37:31;;;;;;;4.88;2.97;;;;;;;20.04;62.41;99142.84;5001580;28;20037;-93
2022/07/09 02:39:57;;;;;;;4.68;2.63;;;;;;;19.97;62.98;99148.84;5002207;28;20032;-92
2022/07/09 02:42:22;;;;;;;6.68;3.05;;;;;;;19.93;63.27;99159.66;5002091;28;20029;-93
2022/07/09 02:44:49;;;;;;;4.32;2.70;;;;;;;19.93;63.43;99158.88;5001569;28;20128;-93
2022/07/09 02:47:14;;;;;;;3.03;2.58;;;;;;;19.87;63.40;99152.81;5017347;28;20041;-92
2022/07/09 02:49:39;;;;;;;4.78;2.40;;;;;;;19.76;63.50;99146.16;5001861;28;20030;-93
2022/07/09 02:52:06;;;;;;;3.63;2.45;;;;;;;19.88;63.08;99151.69;4985154;28;20091;-92
2022/07/09 02:54:33;;;;;;;4.38;2.63;;;;;;;19.92;63.02;99146.31;4985925;28;20029;-93
2022/07/09 02:57:00;;;;;;;5.43;2.75;;;;;;;19.95;62.88;99153.88;5001429;28;20041;-93
2022/07/09 02:59:26;;;;;;;5.43;2.67;;;;;;;19.89;62.72;99147.00;5033412;28;20034;-93
2022/07/09 03:01:52;;;;;;;2.83;2.45;;;;;;;19.87;63.00;99152.00;5001353;28;20068;-92
2022/07/09 03:04:18;;;;;;;4.65;3.03;;;;;;;19.81;63.55;99150.63;5002488;28;20053;-93
2022/07/09 03:06:44;;;;;;;3.22;2.50;;;;;;;19.72;63.49;99142.50;5002405;28;20021;-93
2022/07/09 03:09:10;;;;;;;4.22;2.70;;;;;;;19.82;63.84;99161.22;5001239;28;20045;-92
2022/07/09 03:11:36;;;;;;;3.40;2.65;;;;;;;19.83;64.04;99167.47;5017423;28;20124;-92
2022/07/09 03:14:02;;;;;;;15.15;3.25;;;;;;;19.77;63.50;99158.69;5018400;28;20052;-92
2022/07/09 03:16:30;;;;;;;4.13;2.60;;;;;;;19.76;63.67;99168.03;5001261;28;20037;-93
2022/07/09 03:18:55;;;;;;;3.78;2.47;;;;;;;19.70;63.54;99147.47;5017483;28;20065;-92
2022/07/09 03:21:21;;;;;;;3.55;2.38;;;;;;;19.80;63.78;99160.75;4985727;28;20040;-93
2022/07/09 03:23:47;;;;;;;3.97;2.70;;;;;;;19.82;63.91;99168.59;5000849;28;20431;-93
2022/07/09 03:26:13;;;;;;;5.82;2.75;;;;;;;19.84;63.29;99167.16;5017898;28;20034;-93
2022/07/09 03:28:39;;;;;;;5.25;2.50;;;;;;;19.90;63.12;99151.31;5000755;28;20056;-93
2022/07/09 03:31:04;;;;;;;2.90;2.42;;;;;;;19.77;63.70;99155.94;5016525;28;20116;-92
2022/07/09 03:33:30;;;;;;;2.85;2.30;;;;;;;19.81;62.94;99165.06;4999255;28;20041;-92
2022/07/09 03:35:56;;;;;;;3.83;2.47;;;;;;;19.80;63.31;99171.69;5000869;28;20475;-93
2022/07/09 03:38:23;;;;;;;6.10;2.50;;;;;;;19.80;63.74;99166.22;5000209;28;20036;-92
2022/07/09 03:40:50;;;;;;;3.60;2.72;;;;;;;19.80;63.04;99177.16;5001015;28;20029;-92
2022/07/09 03:43:16;;;;;;;2.80;2.30;;;;;;;19.87;63.06;99171.94;5000189;28;20040;-92
2022/07/09 03:45:42;;;;;;;5.22;2.42;;;;;;;19.85;63.05;99176.94;5000728;28;20076;-92
2022/07/09 03:48:08;;;;;;;4.30;2.28;;;;;;;19.91;62.89;99181.06;4983702;28;20060;-93
2022/07/09 03:50:33;;;;;;;2.67;2.40;;;;;;;19.81;62.65;99162.34;5016609;28;20461;-92
2022/07/09 03:53:00;;;;;;;4.50;2.30;;;;;;;20.06;62.52;99181.56;5000973;28;20041;-92
2022/07/09 03:55:27;;;;;;;3.45;2.50;;;;;;;20.04;62.69;99179.16;5001075;28;20033;-92
2022/07/09 03:57:53;;;;;;;7.65;2.70;;;;;;;19.86;62.67;99162.16;5001581;28;20052;-93
2022/07/09 04:00:18;;;;;;;2.85;2.38;;;;;;;19.85;62.71;99157.81;5016686;28;20120;-93
2022/07/09 04:02:45;;;;;;;3.70;2.88;;;;;;;20.10;62.25;99179.75;5000671;28;20458;-92
2022/07/09 04:05:11;;;;;;;4.72;2.83;;;;;;;20.11;62.03;99173.97;4983987;28;20067;-94
2022/07/09 04:07:39;;;;;;;4.55;2.65;;;;;;;20.08;62.07;99174.63;5000278;28;20059;-92
2022/07/09 04:10:07;;;;;;;3.50;2.55;;;;;;;20.09;61.85;99169.97;5000515;28;20510;-92
2022/07/09 04:12:33;;;;;;;4.93;2.55;;;;;;;20.09;61.69;99167.25;5016121;28;20046;-92
2022/07/09 04:15:00;;;;;;;3.00;2.25;;;;;;;20.13;61.50;99179.91;5015872;28;20028;-92
2022/07/09 04:17:29;;;;;;;5.00;2.60;;;;;;;20.06;61.41;99189.78;5000876;28;20029;-91
2022/07/09 04:19:54;;;;;;;2.63;2.42;;;;;;;19.98;61.93;99175.03;4984406;28;20032;-92
2022/07/09 04:22:20;;;;;;;3.35;2.47;;;;;;;19.95;62.27;99176.50;5000069;28;20031;-92
2022/07/09 04:24:45;;;;;;;3.95;2.72;;;;;;;19.93;61.96;99167.06;4999558;28;20017;-91
2022/07/09 04:27:11;;;;;;;4.75;2.70;;;;;;;19.90;61.80;99171.28;4999162;28;20028;-92
2022/07/09 04:29:37;;;;;;;3.25;2.47;;;;;;;19.96;61.98;99182.78;5016851;28;20033;-92
2022/07/09 04:32:04;;;;;;;3.53;2.50;;;;;;;20.08;61.71;99182.81;5000174;28;20021;-92
2022/07/09 04:34:29;;;;;;;3.75;2.50;;;;;;;19.98;61.83;99181.31;4999687;28;20032;-92
2022/07/09 04:36:55;;;;;;;4.05;2.58;;;;;;;19.90;62.14;99167.72;5000194;28;20042;-93
2022/07/09 04:39:22;;;;;;;3.00;2.65;;;;;;;19.72;62.94;99170.63;4983622;28;20017;-92
2022/07/09 04:41:49;;;;;;;5.85;2.85;;;;;;;19.83;62.95;99179.19;4984075;28;20083;-91
2022/07/09 04:44:15;;;;;;;3.67;2.80;;;;;;;19.85;62.13;99182.41;5003091;28;20107;-92
2022/07/09 04:46:42;;;;;;;4.18;2.28;;;;;;;19.83;62.40;99171.00;5003831;28;20040;-94
2022/07/09 04:49:08;;;;;;;3.17;2.83;;;;;;;20.05;61.94;99185.44;4987705;28;20080;-92
2022/07/09 04:51:34;;;;;;;7.10;3.10;;;;;;;20.06;61.86;99187.81;4988049;28;20479;-92
2022/07/09 04:54:01;;;;;;;6.63;3.03;;;;;;;19.94;62.54;99188.59;5003157;28;20038;-91
2022/07/09 04:56:28;;;;;;;4.45;2.63;;;;;;;20.06;62.07;99190.56;5002656;28;20124;-91
2022/07/09 04:58:55;;;;;;;4.40;2.95;;;;;;;20.14;62.20;99181.47;5004466;28;20033;-91
2022/07/09 05:01:21;;;;;;;4.72;2.85;;;;;;;20.25;61.57;99197.47;5020158;28;20022;-92
2022/07/09 05:03:48;;;;;;;5.55;2.90;;;;;;;20.42;60.59;99199.22;4997737;28;20072;-93
2022/07/09 05:06:15;;;;;;;3.63;2.80;;;;;;;20.37;60.88;99192.03;4967693;28;20192;-92
2022/07/09 05:08:42;;;;;;;3.55;2.67;;;;;;;20.50;60.54;99190.94;4983907;28;20108;-91
2022/07/09 05:11:07;;;;;;;4.07;2.92;;;;;;;20.68;60.82;99204.41;5000067;28;20460;-92
2022/07/09 05:13:33;;;;;;;3.78;2.75;;;;;;;20.58;60.14;99189.25;4969198;28;20096;-91
2022/07/09 05:15:58;;;;;;;3.00;2.50;;;;;;;20.82;59.56;99204.91;4969081;28;20249;-92
2022/07/09 05:18:24;;;;;;;4.25;2.78;;;;;;;20.82;59.51;99204.91;4967336;28;20049;-92
2022/07/09 05:20:50;;;;;;;4.70;2.83;;;;;;;20.63;59.96;99180.81;4999673;28;20036;-92
2022/07/09 05:23:15;;;;;;;4.50;2.95;;;;;;;20.90;59.96;99195.00;4983217;28;20025;-91
2022/07/09 05:25:46;;;;;;;5.70;2.92;;;;;;;20.89;59.32;99183.22;4966492;28;20464;-90
2022/07/09 05:28:12;;;;;;;4.90;2.70;;;;;;;20.94;59.23;99193.16;4983626;28;20553;-91
2022/07/09 05:30:38;;;;;;;4.88;2.33;;;;;;;21.12;59.27;99202.72;5014457;28;20034;-90
2022/07/09 05:33:07;;;;;;;3.60;2.80;;;;;;;21.27;59.21;99206.72;4966199;28;20032;-91
2022/07/09 05:35:36;;;;;;;6.03;2.70;;;;;;;21.10;59.36;99187.78;4966334;28;20033;-91
2022/07/09 05:38:01;;;;;;;3.08;2.60;;;;;;;21.36;58.87;99192.91;4982166;28;20034;-91
2022/07/09 05:40:27;;;;;;;5.38;2.53;;;;;;;21.49;57.93;99193.69;4966971;28;20062;-91
2022/07/09 05:42:57;;;;;;;5.80;2.75;;;;;;;21.55;57.90;99201.31;4983848;28;20411;-93
2022/07/09 05:45:30;;;;;;;6.50;3.60;;;;;;;21.56;57.93;99197.47;4966599;28;20029;-91
2022/07/09 05:47:56;;;;;;;3.15;2.83;;;;;;;21.45;57.58;99195.53;4983240;28;20118;-91
2022/07/09 05:50:22;;;;;;;5.20;3.28;;;;;;;21.63;57.74;99193.34;4967527;28;20089;-92
2022/07/09 05:52:49;;;;;;;7.90;3.65;;;;;;;21.82;57.84;99203.66;4982413;28;20022;-91
2022/07/09 05:55:16;;;;;;;8.48;2.80;;;;;;;21.96;56.53;99198.59;4999600;28;20042;-91
2022/07/09 05:57:46;;;;;;;7.10;2.88;;;;;;;22.10;56.35;99203.66;4998456;28;20034;-92
2022/07/09 06:00:14;;;;;;;5.22;2.90;;;;;;;22.00;54.64;99178.34;4983033;28;20018;-94
2022/07/09 06:02:58;;;;;;;8.77;3.40;;;;;;;22.12;54.76;99196.69;4982873;28;20381;-94
2022/07/09 06:05:24;;;;;;;6.22;2.72;;;;;;;22.26;53.26;99181.78;5001002;28;20041;-94
2022/07/09 06:07:50;;;;;;;6.13;3.30;;;;;;;22.30;52.40;99177.19;5019444;28;20426;-94
2022/07/09 06:10:17;;;;;;;4.57;2.88;;;;;;;22.35;52.77;99177.72;4985172;28;20037;-94
2022/07/09 06:12:52;;;;;;;6.47;2.75;;;;;;;22.23;53.28;99169.56;5042091;28;20042;-96
2022/07/09 06:15:24;;;;;;;3.92;2.60;;;;;;;22.33;53.42;99170.97;5005373;28;20029;-95
2022/07/09 06:17:51;;;;;;;4.80;2.75;;;;;;;22.41;52.52;99175.50;5005181;28;20064;-95
2022/07/09 06:20:17;;;;;;;7.15;3.08;;;;;;;22.54;51.09;99184.47;5003607;28;20112;-94
2022/07/09 06:22:44;;;;;;;4.43;2.60;;;;;;;22.43;52.12;99189.66;5018624;28;20029;-94
2022/07/09 06:25:10;;;;;;;2.97;2.67;;;;;;;22.41;51.47;99161.78;5002596;28;20033;-93
2022/07/09 06:27:43;;;;;;;5.75;2.70;;;;;;;22.63;50.94;99162.34;5001562;28;20381;-92
2022/07/09 06:30:09;;;;;;;4.40;2.58;;;;;;;22.66;48.22;99165.19;5002881;28;20030;-94
2022/07/09 06:32:35;;;;;;;3.13;2.58;;;;;;;22.78;47.48;99178.00;4987502;28;20033;-94
2022/07/09 06:35:02;;;;;;;5.25;2.40;;;;;;;22.90;48.29;99182.59;5019192;28;20021;-94
2022/07/09 06:37:28;;;;;;;6.78;2.63;;;;;;;23.04;48.60;99176.69;5002367;28;20057;-92
2022/07/09 06:39:56;;;;;;;3.40;2.60;;;;;;;22.83;48.47;99163.19;4986769;28;20028;-93
2022/07/09 06:42:22;;;;;;;6.47;2.90;;;;;;;22.89;48.56;99162.59;5003009;28;20029;-93
2022/07/09 06:44:49;;;;;;;3.75;3.10;;;;;;;22.94;48.65;99164.28;5001673;28;20376;-93
2022/07/09 06:47:15;;;;;;;6.10;2.72;;;;;;;23.08;48.02;99172.09;5017608;28;20025;-92
2022/07/09 06:49:41;;;;;;;3.65;2.50;;;;;;;23.22;47.44;99155.91;4985149;28;20068;-94
2022/07/09 06:52:07;;;;;;;4.30;2.30;;;;;;;23.05;47.51;99150.81;4984276;28;20094;-93
2022/07/09 06:54:33;;;;;;;4.88;2.70;;;;;;;23.19;48.26;99164.88;4984514;28;20048;-90
2022/07/09 06:57:00;;;;;;;5.78;2.60;;;;;;;23.07;48.36;99164.97;5001724;28;20414;-91
2022/07/09 06:59:26;;;;;;;7.00;2.58;;;;;;;23.25;47.50;99163.44;5019085;28;20021;-91
2022/07/09 07:01:52;;;;;;;3.95;2.40;;;;;;;23.26;47.19;99158.72;5000714;28;20033;-90
2022/07/09 07:04:17;;;;;;;4.85;2.30;;;;;;;23.36;46.71;99150.72;4991413;28;20072;-92
2022/07/09 07:06:43;;;;;;;6.03;2.55;;;;;;;23.49;46.70;99161.59;4980850;28;20021;-92
2022/07/09 07:09:12;;;;;;;4.78;2.45;;;;;;;23.67;46.53;99175.72;4981501;28;20033;-92
2022/07/09 07:11:37;;;;;;;3.17;2.40;;;;;;;23.48;46.11;99151.75;5013783;28;20033;-91
2022/07/09 07:14:05;;;;;;;5.00;2.50;;;;;;;23.56;46.04;99164.50;4966139;28;20022;-91
2022/07/09 07:16:31;;;;;;;3.72;2.30;;;;;;;23.64;45.30;99168.16;4982278;28;20028;-92
2022/07/09 07:19:06;;;;;;;4.75;2.60;;;;;;;23.60;44.77;99160.66;4965967;28;20041;-94
2022/07/09 07:21:32;;;;;;;3.35;2.55;;;;;;;23.57;45.42;99155.06;4982269;28;20476;-92
2022/07/09 07:23:58;;;;;;;3.30;2.30;;;;;;;23.69;44.59;99159.66;4998114;28;20093;-91
2022/07/09 07:26:23;;;;;;;4.68;2.55;;;;;;;23.67;44.57;99153.72;4966183;28;20057;-92
2022/07/09 07:28:49;;;;;;;6.63;2.35;;;;;;;23.65;44.13;99154.06;4965211;28;20038;-92
2022/07/09 07:31:16;;;;;;;7.95;3.60;;;;;;;23.83;44.48;99170.19;4981038;28;20441;-93
2022/07/09 07:33:43;;;;;;;5.00;2.53;;;;;;;24.03;43.34;99170.94;5013831;28;20083;-93
2022/07/09 07:36:11;;;;;;;4.07;2.40;;;;;;;23.92;43.26;99159.75;4966092;28;20030;-91
2022/07/09 07:38:37;;;;;;;8.13;2.80;;;;;;;24.06;43.96;99162.75;4964658;28;20087;-92
2022/07/09 07:41:03;;;;;;;8.23;2.70;;;;;;;24.14;44.91;99158.19;4980534;28;20022;-91
2022/07/09 07:43:30;;;;;;;4.28;2.78;;;;;;;24.16;43.73;99155.88;4996460;28;20124;-94
2022/07/09 07:45:55;;;;;;;4.95;2.58;;;;;;;24.26;43.54;99169.03;4981513;28;20109;-95
2022/07/09 07:48:21;;;;;;;6.43;2.20;;;;;;;24.28;43.97;99155.72;4981429;28;20022;-91
2022/07/09 07:50:47;;;;;;;4.57;2.38;;;;;;;24.20;44.57;99151.25;4981143;28;20028;-93
2022/07/09 07:53:13;;;;;;;5.60;2.58;;;;;;;24.20;43.29;99148.50;4981088;28;20057;-92
2022/07/09 07:55:39;;;;;;;5.25;2.33;;;;;;;24.20;43.49;99156.75;4997153;28;20041;-92
2022/07/09 07:58:08;;;;;;;3.45;2.30;;;;;;;24.21;44.23;99148.09;4981531;28;20554;-93
2022/07/09 08:00:34;;;;;;;4.78;2.35;;;;;;;24.46;43.81;99174.47;4964851;28;20120;-93
2022/07/09 08:03:00;;;;;;;5.63;2.70;;;;;;;24.34;43.56;99150.69;4997325;28;20034;-93
2022/07/09 08:05:26;;;;;;;4.15;2.70;;;;;;;24.56;43.90;99163.69;4999233;28;20046;-92
2022/07/09 08:07:52;;;;;;;5.30;2.15;;;;;;;24.56;43.51;99162.91;5000731;28;20028;-93
2022/07/09 08:10:17;;;;;;;5.07;2.60;;;;;;;24.67;43.10;99166.59;5001492;28;20086;-93
2022/07/09 08:12:44;;;;;;;4.43;2.00;;;;;;;24.67;42.55;99147.34;4984936;28;20065;-92
2022/07/09 08:15:09;;;;;;;2.50;2.17;;;;;;;24.63;41.94;99157.50;5016584;28;20476;-91
2022/07/09 08:17:35;;;;;;;6.22;2.53;;;;;;;24.76;42.41;99171.88;5002713;28;20102;-92
2022/07/09 08:20:01;;;;;;;5.63;2.28;;;;;;;24.70;41.91;99146.59;4988766;28;20477;-93
2022/07/09 08:22:28;;;;;;;4.30;2.33;;;;;;;24.79;41.36;99155.41;5004804;28;20026;-93
2022/07/09 08:24:53;;;;;;;4.15;2.45;;;;;;;24.77;41.30;99154.19;4987766;28;20548;-93
2022/07/09 08:27:19;;;;;;;3.15;2.28;;;;;;;24.56;41.55;99141.66;4989111;28;20053;-94
2022/07/09 08:29:49;;;;;;;3.38;2.25;;;;;;;24.51;41.63;99141.16;4990021;28;20030;-95
2022/07/09 08:32:16;;;;;;;2.78;2.25;;;;;;;24.59;41.10;99140.13;5025167;28;20029;-93
2022/07/09 08:34:41;;;;;;;2.72;2.50;;;;;;;24.87;41.35;99150.81;5007849;28;20036;-95
2022/07/09 08:37:08;;;;;;;4.80;2.38;;;;;;;24.95;41.03;99146.22;5009511;28;20029;-94
2022/07/09 08:39:40;;;;;;;3.95;2.15;;;;;;;24.77;40.65;99143.16;5009647;28;20108;-93
2022/07/09 08:42:10;;;;;;;3.90;2.13;;;;;;;24.96;40.40;99161.56;5023298;28;20052;-93
2022/07/09 08:44:52;;;;;;;5.60;2.33;;;;;;;24.80;41.00;99132.22;4988508;28;20030;-93
2022/07/09 08:47:38;;;;;;;7.07;2.58;;;;;;;24.96;40.76;99140.31;5006428;28;20033;-94
2022/07/09 08:50:06;;;;;;;7.07;2.42;;;;;;;24.95;40.14;99135.97;5023105;28;20073;-94
2022/07/09 08:52:33;;;;;;;8.60;3.28;;;;;;;24.87;39.51;99137.03;5007579;28;20033;-94
2022/07/09 08:55:01;;;;;;;4.45;2.08;;;;;;;24.94;39.08;99134.38;5007104;28;20053;-94
2022/07/09 08:57:27;;;;;;;7.93;3.40;;;;;;;24.87;40.38;99145.28;4989781;28;20449;-94
2022/07/09 08:59:52;;;;;;;5.72;2.33;;;;;;;24.85;40.29;99146.84;5005582;28;20032;-95
2022/07/09 09:02:21;;;;;;;7.72;2.40;;;;;;;24.99;40.15;99133.28;4991683;28;20034;-94
2022/07/09 09:04:56;;;;;;;5.50;2.50;;;;;;;24.78;40.14;99097.97;4976440;28;20061;-95
2022/07/09 09:07:21;;;;;;;4.68;2.38;;;;;;;25.22;40.63;99126.94;5001871;28;20496;-94
2022/07/09 09:09:48;;;;;;;2.63;2.05;;;;;;;25.20;40.55;99127.28;4984329;28;20053;-95
2022/07/09 09:12:28;;;;;;;3.17;2.10;;;;;;;25.04;40.33;99121.13;5002275;28;20502;-95
2022/07/09 09:14:54;;;;;;;5.40;2.28;;;;;;;25.20;40.92;99125.34;4985183;28;20101;-93
2022/07/09 09:17:20;;;;;;;3.00;2.22;;;;;;;25.42;40.27;99117.34;4967732;28;20087;-93
2022/07/09 09:19:48;;;;;;;3.85;2.42;;;;;;;25.51;38.73;99104.06;4968202;28;20022;-93
2022/07/09 09:22:25;;;;;;;3.75;2.10;;;;;;;25.57;38.87;99097.06;4967453;28;20036;-96
2022/07/09 09:24:53;;;;;;;5.05;2.17;;;;;;;25.92;38.67;99115.22;4985067;28;20030;-94
2022/07/09 09:27:27;;;;;;;4.68;1.83;;;;;;;25.80;37.42;99101.66;4984450;28;20472;-92
2022/07/09 09:29:52;;;;;;;4.35;2.50;;;;;;;25.90;38.40;99122.25;4982810;28;20036;-95
2022/07/09 09:32:24;;;;;;;4.70;1.90;;;;;;;26.04;37.32;99111.38;4968182;28;20113;-94
2022/07/09 09:34:53;;;;;;;5.32;2.33;;;;;;;25.98;37.40;99085.28;4967969;28;20034;-96
2022/07/09 09:37:26;;;;;;;3.80;2.08;;;;;;;26.03;36.70;99079.44;4967286;28;20091;-94
2022/07/09 09:39:52;;;;;;;2.30;1.63;;;;;;;26.12;35.20;99092.91;5000132;28;20028;-95
2022/07/09 09:42:23;;;;;;;3.13;1.88;;;;;;;26.19;35.53;99085.50;4966981;28;20416;-94
2022/07/09 09:44:51;;;;;;;4.22;2.20;;;;;;;26.38;35.88;99098.28;4983619;28;20030;-94
2022/07/09 09:47:22;;;;;;;4.20;1.90;;;;;;;26.52;35.78;99100.38;5017950;28;20033;-95
2022/07/09 09:49:48;;;;;;;;;;;;;;;26.55;34.70;99098.81;5000853;28;20488;-95
2022/07/09 09:52:17;;;;;;;3.03;1.90;;;;;;;26.48;34.99;99082.19;4999898;28;19913;-95
2022/07/09 09:54:46;;;;;;;4.40;1.75;;;;;;;26.66;34.29;99083.13;4984168;28;20091;-94
2022/07/09 09:57:19;;;;;;;2.17;1.55;;;;;;;26.90;33.34;99094.75;5001470;28;20120;-94
2022/07/09 09:59:46;;;;;;;3.97;1.70;;;;;;;26.84;33.84;99066.69;4983998;28;20041;-95
2022/07/09 10:02:14;;;;;;;4.47;1.48;;;;;;;26.90;33.11;99083.69;4999067;28;20034;-95
2022/07/09 10:04:43;;;;;;;6.28;1.50;;;;;;;26.93;33.08;99082.91;4995882;28;20144;-95
2022/07/09 10:07:11;;;;;;;4.03;1.50;;;;;;;26.84;31.98;99063.91;5018523;28;20124;-94
2022/07/09 10:09:40;;;;;;;4.25;1.60;;;;;;;26.98;32.07;99085.31;4986975;28;20026;-94
2022/07/09 10:12:09;;;;;;;2.53;1.52;;;;;;;26.95;31.28;99086.09;5003368;28;20029;-92
2022/07/09 10:14:37;;;;;;;2.47;1.27;;;;;;;27.00;32.13;99072.69;4987039;28;20419;-93
2022/07/09 10:17:11;;;;;;;4.47;1.50;;;;;;;27.18;30.99;99080.28;5002951;28;20380;-94
2022/07/09 10:19:39;;;;;;;2.10;1.60;;;;;;;26.96;31.34;99062.81;5003377;28;20471;-94
2022/07/09 10:22:17;;;;;;;;;;;;;;;;;;;;;
2022/07/09 10:24:44;;;;;;;2.30;1.42;;;;;;;27.36;30.61;99081.19;5006424;28;20037;-94
2022/07/09 10:27:11;;;;;;;3.75;1.73;;;;;;;27.45;31.71;99071.72;4988363;28;20106;-93
2022/07/09 10:29:56;;;;;;;3.58;1.67;;;;;;;27.52;31.37;99060.72;5017796;28;20470;-92
2022/07/09 10:32:24;;;;;;;6.13;1.80;;;;;;;27.79;31.22;99077.78;5005406;28;20028;-94
2022/07/09 10:34:59;;;;;;;7.45;1.73;;;;;;;27.83;30.54;99053.66;5002993;28;20117;-94
2022/07/09 10:37:41;;;;;;;2.58;1.42;;;;;;;27.95;29.86;99069.94;4986799;28;20031;-93
2022/07/09 10:40:36;;;;;;;4.82;1.77;;;;;;;27.81;29.90;99054.06;5002930;28;20025;-95
2022/07/09 10:43:04;;;;;;;4.22;1.45;;;;;;;27.88;29.31;99064.38;5013701;28;20047;-95
2022/07/09 10:45:44;;;;;;;5.95;1.33;;;;;;;27.76;30.48;99068.25;5003035;28;20025;-93
2022/07/09 10:48:11;;;;;;;8.27;1.63;;;;;;;27.83;30.53;99064.72;4989881;28;20033;-95
2022/07/09 10:51:01;;;;;;;2.17;1.30;;;;;;;28.04;29.59;99068.72;5003938;28;20030;-94
2022/07/09 10:53:30;;;;;;;5.93;1.80;;;;;;;28.07;29.88;99054.13;5004716;28;20482;-94
2022/07/09 10:55:56;;;;;;;2.20;1.40;;;;;;;28.21;29.81;99060.44;5001741;28;20112;-92
2022/07/09 10:58:26;;;;;;;4.85;1.40;;;;;;;28.42;29.28;99056.88;5017540;28;20467;-92
2022/07/09 11:01:18;;;;;;;4.38;1.98;;;;;;;28.46;29.88;99053.31;5017159;28;20060;-92
2022/07/09 11:04:11;;;;;;;2.40;1.40;;;;;;;28.60;27.94;99050.56;4973940;28;20512;-92
2022/07/09 11:06:48;;;;;;;2.88;1.40;;;;;;;28.87;28.31;99062.00;4904012;29;20040;-93
2022/07/09 11:09:17;;;;;;;4.30;1.42;;;;;;;28.66;28.32;99045.38;4884691;29;20095;-92
2022/07/09 11:11:43;;;;;;;2.22;1.13;;;;;;;28.77;27.62;99046.97;4868998;29;20135;-93
2022/07/09 11:14:31;;;;;;;6.45;1.50;;;;;;;28.73;27.78;99050.94;4900579;29;20043;-94
2022/07/09 11:16:58;;;;;;;7.32;1.48;;;;;;;28.86;27.97;99062.38;4865742;29;20060;-96
2022/07/09 11:19:27;;;;;;;1.95;1.15;;;;;;;28.52;28.48;99054.53;4851897;29;20495;-92
2022/07/09 11:22:04;;;;;;;2.80;1.40;;;;;;;28.40;29.00;99053.72;4853772;29;20045;-91
2022/07/09 11:24:30;;;;;;;3.13;1.52;;;;;;;28.40;28.88;99067.56;4852690;29;20048;-95
2022/07/09 11:27:02;;;;;;;9.43;2.35;;;;;;;28.37;29.18;99050.97;4836308;29;20044;-95
2022/07/09 11:29:30;;;;;;;3.70;1.55;;;;;;;28.47;29.08;99058.44;4882002;29;20037;-94
2022/07/09 11:31:56;;;;;;;3.45;1.52;;;;;;;28.49;28.38;99044.19;4849626;29;20049;-94
2022/07/09 11:34:21;;;;;;;7.00;1.70;;;;;;;28.55;28.46;99048.97;4847970;29;20043;-94
2022/07/09 11:36:53;;;;;;;2.97;1.30;;;;;;;28.76;28.61;99058.44;4925321;29;20042;-94